• Join FlightAware (Why Join?)
  • Login
  • US Flag 
12:12PM EDT


 

Airport Tracker/Info


-or-


 

Live Flight TrackerFlight Track Log ✈ SKW6345 ✈ 28-May-2014 ✈ KLAX - KFAT

Flight Track Log - Related Links

Times and Time Zones

All times are in EDT time to prevent confusion due to time zone crossing. See the SKW6345 flight status page for this flight to view local times or setup timezone preferences in your user account.

Time Position Orientation Groundspeed Altitude Reporting Facility
EDT Latitude Longitude Course Direction KTS MPH feet Rate Location/Type
07:29PM 33.9500 -118.4500 270° West 135 155 1,400  Level Southern California TRACON
07:30PM 33.9500 -118.5000 270° West 189 217 2,500 1,200 Climbing Southern California TRACON
07:31PM 33.9667 -118.5667 287° West 195 224 3,800 1,320 Climbing Southern California TRACON
07:32PM 34.0000 -118.6167 309° West 203 234 5,200 1,260 Climbing Southern California TRACON
07:34PM 34.0561 -118.6350 345° North 203 234 6,600 1,080 Climbing Los Angeles Center
07:35PM 34.1114 -118.6431 353° North 208 239 7,600 960 Climbing Los Angeles Center
07:36PM 34.1689 -118.6511 353° North 208 239 8,600 1,140 Climbing Los Angeles Center
07:37PM 34.2392 -118.6650 351° North 211 243 10,000 1,260 Climbing Los Angeles Center
07:38PM 34.2972 -118.6889 341° North 219 252 11,300 900 Climbing Los Angeles Center
07:39PM 34.3544 -118.7086 344° North 216 249 11,900 540 Climbing Los Angeles Center
07:40PM 34.4164 -118.7256 347° North 226 260 12,500 660 Climbing Los Angeles Center
07:41PM 34.4769 -118.7394 349° North 222 255 13,300 720 Climbing Los Angeles Center
07:42PM 34.5392 -118.7506 352° North 224 258 14,000 780 Climbing Los Angeles Center
07:43PM 34.6167 -118.7678 350° North 233 268 15,000 960 Climbing Los Angeles Center
07:44PM 34.6825 -118.7811 351° North 239 275 16,000 840 Climbing Los Angeles Center
07:45PM 34.7489 -118.7922 352° North 242 278 16,800 720 Climbing Los Angeles Center
07:46PM 34.8144 -118.8067 350° North 241 277 17,600 720 Climbing Los Angeles Center
07:47PM 34.8803 -118.8189 351° North 239 275 18,400 660 Climbing Los Angeles Center
07:48PM 34.9481 -118.8322 351° North 242 278 19,000 240 Climbing Los Angeles Center
07:49PM 35.0189 -118.8461 351° North 253 291 19,000  Level Los Angeles Center
07:50PM 35.1064 -118.8639 351° North 262 302 19,000  Level Los Angeles Center
07:51PM 35.1800 -118.8781 351° North 264 304 19,000  Level Los Angeles Center
07:52PM 35.2547 -118.8933 351° North 270 311 19,000  Level Los Angeles Center
07:53PM 35.3297 -118.9072 351° North 272 313 19,000  Level Los Angeles Center
07:54PM 35.4036 -118.9219 351° North 271 312 19,000  Level Los Angeles Center
07:55PM 35.4942 -118.9400 351° North 273 314 19,000  Level Los Angeles Center
07:56PM 35.5697 -118.9550 351° North 274 315 19,000 -240 Level Los Angeles Center
07:57PM 35.6453 -118.9714 350° North 275 316 18,500 -840 Descending Los Angeles Center
07:58PM 35.7283 -118.9861 352° North 296 341 17,300 -1,020 Descending Los Angeles Center
08:00PM 35.8136 -119.0036 351° North 307 353 16,400 -960 Descending Los Angeles Center
08:01PM 35.9142 -119.0247 350° North 307 353 15,400 -960 Descending Los Angeles Center
08:02PM 35.9914 -119.0594 340° North 300 345 14,500 -720 Descending Los Angeles Center
08:03PM 36.0683 -119.0981 338° Northwest 300 345 14,000 -300 Descending Los Angeles Center
08:04PM 36.1419 -119.1333 339° North 293 337 14,000 -180 Level Los Angeles Center
08:05PM 36.2106 -119.1664 339° North 276 318 13,700 -780 Descending Los Angeles Center
08:06PM 36.2972 -119.2067 339° North 276 318 12,400 -1,080 Descending Los Angeles Center
08:07PM 36.3731 -119.2422 339° North 281 323 11,500 -900 Descending Los Angeles Center
08:08PM 36.4492 -119.2792 339° North 287 330 10,600 -900 Descending Los Angeles Center
08:09PM 36.5269 -119.3169 339° North 292 336 9,700 -960 Descending Los Angeles Center
08:10PM 36.5819 -119.3811 317° Northwest 288 331 8,700 -1,200 Descending Los Angeles Center
08:11PM 36.6353 -119.4667 308° West 275 316 7,300 -1,500 Descending Los Angeles Center
08:12PM 36.6753 -119.5386 305° West 173 199 5,100 -1,800 Descending Oakland Center
08:13PM 36.7017 -119.5861 305° West 170 196 3,000 -1,560 Descending Oakland Center
08:14PM 36.7242 -119.6261 305° West 146 168 2,000 -900 Descending Oakland Center
08:15PM 36.7467 -119.6650 306° West 135 155 1,200 -720 Descending Oakland Center
08:16PM 36.7650 -119.6969 306° West 121 139 600 -600 Descending Oakland Center